Time;durP1;ratioP1;P1;durP2;ratioP2;P2;SDS_P1;SDS_P2;PMS_P1;PMS_P2;Temp;Humidity;BMP_temperature;BMP_pressure;BME280_temperature;BME280_humidity;BME280_pressure;Samples;Min_cycle;Max_cycle;Signal;HPM_P1;HPM_P2
2022/12/02 00:02:04;;;;;;;41.00;29.53;;;1.00;99.90;;;;;;5065378;28;20509;-53
2022/12/02 00:04:31;;;;;;;39.23;29.20;;;1.00;99.90;;;;;;5067711;28;20598;-54
2022/12/02 00:06:59;;;;;;;41.13;28.30;;;1.00;99.90;;;;;;5069849;28;20520;-54
2022/12/02 00:09:30;;;;;;;44.47;30.00;;;1.00;99.90;;;;;;5069001;28;20476;-56
2022/12/02 00:11:57;;;;;;;38.73;28.80;;;1.00;99.90;;;;;;5069208;28;21040;-56
2022/12/02 00:14:25;;;;;;;44.27;31.63;;;1.00;99.90;;;;;;5066434;28;20501;-55
2022/12/02 00:16:52;;;;;;;42.83;31.10;;;1.00;99.90;;;;;;5072632;28;20521;-53
2022/12/02 00:19:19;;;;;;;41.70;29.67;;;1.00;99.90;;;;;;5069578;28;20505;-55
2022/12/02 00:21:46;;;;;;;38.47;27.40;;;1.00;99.90;;;;;;5069765;28;20510;-56
2022/12/02 00:24:13;;;;;;;42.87;30.10;;;1.00;99.90;;;;;;5071229;28;20560;-54
2022/12/02 00:26:41;;;;;;;40.47;29.73;;;1.00;99.90;;;;;;5064906;28;21783;-54
2022/12/02 00:29:07;;;;;;;41.13;28.33;;;1.00;99.90;;;;;;5066492;28;20584;-54
2022/12/02 00:31:34;;;;;;;43.27;28.47;;;1.10;99.90;;;;;;5067547;28;20497;-56
2022/12/02 00:34:01;;;;;;;43.43;30.93;;;1.00;99.90;;;;;;5065689;28;20516;-54
2022/12/02 00:36:28;;;;;;;43.40;30.53;;;1.00;99.90;;;;;;5069085;28;20469;-55
2022/12/02 00:38:55;;;;;;;41.47;29.67;;;1.00;99.90;;;;;;5071259;28;21362;-56
2022/12/02 00:41:22;;;;;;;41.97;30.13;;;1.10;99.90;;;;;;5069918;28;20534;-53
2022/12/02 00:46:36;;;;;;;42.27;30.00;;;1.10;99.90;;;;;;5067445;28;20467;-54
2022/12/02 00:49:05;;;;;;;43.23;31.27;;;1.10;99.90;;;;;;5067503;28;20505;-54
2022/12/02 00:51:32;;;;;;;45.23;29.57;;;1.10;99.90;;;;;;5067086;28;20465;-55
2022/12/02 00:53:58;;;;;;;44.53;30.97;;;1.10;99.90;;;;;;5067307;28;20489;-55
2022/12/02 00:56:25;;;;;;;41.50;30.80;;;1.10;99.90;;;;;;5067477;28;21002;-53
2022/12/02 00:58:53;;;;;;;44.53;30.50;;;1.10;99.90;;;;;;5067462;28;20510;-54
2022/12/02 01:01:20;;;;;;;42.07;30.73;;;1.10;99.90;;;;;;5072096;28;20491;-54
2022/12/02 01:03:46;;;;;;;40.60;29.27;;;1.10;99.90;;;;;;5066447;28;20527;-54
2022/12/02 01:06:13;;;;;;;40.50;29.37;;;1.10;99.90;;;;;;5068470;28;20492;-54
2022/12/02 01:08:40;;;;;;;40.30;27.90;;;1.10;99.90;;;;;;5065553;28;20481;-55
2022/12/02 01:11:07;;;;;;;41.23;30.20;;;1.10;99.90;;;;;;5070364;28;21011;-55
2022/12/02 01:13:34;;;;;;;42.40;29.53;;;1.20;99.90;;;;;;5065823;28;21030;-55
2022/12/02 01:16:02;;;;;;;44.07;31.47;;;1.10;99.90;;;;;;5065903;28;20554;-54
2022/12/02 01:18:29;;;;;;;45.50;30.87;;;1.10;99.90;;;;;;5065589;28;20454;-54
2022/12/02 01:20:55;;;;;;;46.73;30.60;;;1.20;99.90;;;;;;5066295;28;20482;-54
2022/12/02 01:23:22;;;;;;;41.80;30.20;;;1.20;99.90;;;;;;5070763;28;20495;-53
2022/12/02 01:25:49;;;;;;;44.00;31.30;;;1.20;99.90;;;;;;5065705;28;20512;-56
2022/12/02 01:28:16;;;;;;;40.80;30.13;;;1.20;99.90;;;;;;5071244;28;20500;-55
2022/12/02 01:30:43;;;;;;;42.77;30.80;;;1.20;99.90;;;;;;5066561;28;20484;-55
2022/12/02 01:33:11;;;;;;;44.57;31.23;;;1.10;99.90;;;;;;5064298;28;21018;-54
2022/12/02 01:35:37;;;;;;;41.33;28.77;;;1.20;99.90;;;;;;5069592;28;20505;-54
2022/12/02 01:38:04;;;;;;;40.63;28.60;;;1.20;99.90;;;;;;5066873;28;20480;-54
2022/12/02 01:40:31;;;;;;;44.43;30.33;;;1.20;99.90;;;;;;5067330;28;20492;-54
2022/12/02 01:42:58;;;;;;;43.80;29.70;;;1.20;99.90;;;;;;5066387;28;20496;-54
2022/12/02 01:45:25;;;;;;;42.30;30.47;;;1.20;99.90;;;;;;5065270;28;20489;-54
2022/12/02 01:47:52;;;;;;;45.30;31.57;;;1.20;99.90;;;;;;5066858;28;20472;-54
2022/12/02 01:50:21;;;;;;;42.20;28.30;;;1.20;99.90;;;;;;5067571;28;20510;-54
2022/12/02 01:52:47;;;;;;;43.43;29.50;;;1.20;99.90;;;;;;5064809;28;20489;-55
2022/12/02 01:55:18;;;;;;;41.67;29.60;;;1.20;99.90;;;;;;5066184;28;20492;-56
2022/12/02 01:57:45;;;;;;;46.83;31.50;;;1.20;99.90;;;;;;5064039;28;20531;-53
2022/12/02 02:00:14;;;;;;;42.87;30.00;;;1.20;99.90;;;;;;5068635;28;20487;-54
2022/12/02 02:02:41;;;;;;;44.20;30.53;;;1.20;99.90;;;;;;5062850;28;20480;-55
2022/12/02 02:05:10;;;;;;;41.60;30.10;;;1.20;99.90;;;;;;5066733;28;20557;-54
2022/12/02 02:07:39;;;;;;;42.60;27.93;;;1.20;99.90;;;;;;5064010;28;20508;-54
2022/12/02 02:10:07;;;;;;;40.23;29.60;;;1.20;99.90;;;;;;5064704;28;20546;-54
2022/12/02 02:12:34;;;;;;;42.83;30.33;;;1.20;99.90;;;;;;5061408;28;20993;-55
2022/12/02 02:15:03;;;;;;;47.40;31.57;;;1.20;99.90;;;;;;5063981;28;21281;-54
2022/12/02 02:17:29;;;;;;;41.77;29.70;;;1.20;99.90;;;;;;5065333;28;21245;-54
2022/12/02 02:19:56;;;;;;;44.80;27.47;;;1.20;99.90;;;;;;5065564;28;20457;-54
2022/12/02 02:22:27;;;;;;;46.83;32.23;;;1.20;99.90;;;;;;5065671;28;20974;-55
2022/12/02 02:24:55;;;;;;;45.27;29.73;;;1.20;99.90;;;;;;5064726;28;21015;-55
2022/12/02 02:27:22;;;;;;;44.87;30.03;;;1.20;99.90;;;;;;5066634;28;20902;-54
2022/12/02 02:29:49;;;;;;;45.13;31.17;;;1.20;99.90;;;;;;5068966;28;20535;-54
2022/12/02 02:32:16;;;;;;;43.47;30.10;;;1.20;99.90;;;;;;5066248;28;20489;-55
2022/12/02 02:34:42;;;;;;;43.70;29.90;;;1.20;99.90;;;;;;5067819;28;20539;-53
2022/12/02 02:37:09;;;;;;;48.50;30.40;;;1.20;99.90;;;;;;5065898;28;20509;-55
2022/12/02 02:39:35;;;;;;;42.80;30.77;;;1.20;99.90;;;;;;5062904;28;20519;-54
2022/12/02 02:42:04;;;;;;;41.70;30.03;;;1.20;99.90;;;;;;5066050;28;20461;-54
2022/12/02 02:44:30;;;;;;;43.20;29.80;;;1.20;99.90;;;;;;5063971;28;20500;-55
2022/12/02 02:46:58;;;;;;;46.10;31.13;;;1.20;99.90;;;;;;5066566;28;20513;-54
2022/12/02 02:49:24;;;;;;;41.97;30.70;;;1.20;99.90;;;;;;5064773;28;20539;-55
2022/12/02 02:51:52;;;;;;;45.13;30.40;;;1.20;99.90;;;;;;5065661;28;20518;-54
2022/12/02 02:54:18;;;;;;;39.10;28.90;;;1.20;99.90;;;;;;5064697;28;20501;-53
2022/12/02 02:56:45;;;;;;;42.27;30.50;;;1.20;99.90;;;;;;5067278;28;20512;-55
2022/12/02 02:59:15;;;;;;;42.77;29.13;;;1.20;99.90;;;;;;5059123;28;20514;-54
2022/12/02 03:01:44;;;;;;;43.73;28.77;;;1.20;99.90;;;;;;5064377;28;20468;-54
2022/12/02 03:04:13;;;;;;;49.33;31.13;;;1.20;99.90;;;;;;5066382;28;20513;-55
2022/12/02 03:06:41;;;;;;;42.90;30.17;;;1.10;99.90;;;;;;5066177;28;20575;-54
2022/12/02 03:09:10;;;;;;;45.20;31.10;;;1.20;99.90;;;;;;5066323;28;20508;-54
2022/12/02 03:11:38;;;;;;;42.53;29.90;;;1.10;99.90;;;;;;5069246;28;20496;-54
2022/12/02 03:14:07;;;;;;;44.40;30.40;;;1.20;99.90;;;;;;5069717;28;21315;-53
2022/12/02 03:16:35;;;;;;;41.03;28.00;;;1.20;99.90;;;;;;5072777;28;20473;-53
2022/12/02 03:19:02;;;;;;;43.50;30.97;;;1.20;99.90;;;;;;5070736;28;20534;-55
2022/12/02 03:21:29;;;;;;;45.20;31.50;;;1.20;99.90;;;;;;5069082;28;20871;-53
2022/12/02 03:23:58;;;;;;;45.03;30.87;;;1.10;99.90;;;;;;5072841;28;20514;-54
2022/12/02 03:26:27;;;;;;;40.73;29.60;;;1.20;99.90;;;;;;5066003;28;22792;-54
2022/12/02 03:28:55;;;;;;;46.73;30.07;;;1.20;99.90;;;;;;5069808;28;20480;-54
2022/12/02 03:31:22;;;;;;;44.73;29.77;;;1.20;99.90;;;;;;5070775;28;20534;-54
2022/12/02 03:33:51;;;;;;;43.53;29.60;;;1.20;99.90;;;;;;5062852;28;20985;-56
2022/12/02 03:36:17;;;;;;;44.63;30.20;;;1.10;99.90;;;;;;5068067;28;20508;-53
2022/12/02 03:38:44;;;;;;;41.20;30.03;;;1.20;99.90;;;;;;5068015;28;20652;-54
2022/12/02 03:41:11;;;;;;;44.30;29.40;;;1.20;99.90;;;;;;5069066;28;20546;-54
2022/12/02 03:43:38;;;;;;;47.80;30.77;;;1.20;99.90;;;;;;5068017;28;20480;-54
2022/12/02 03:46:07;;;;;;;43.00;29.60;;;1.20;99.90;;;;;;5068887;28;20509;-54
2022/12/02 03:48:35;;;;;;;43.37;28.57;;;1.10;99.90;;;;;;5063970;28;20508;-55
2022/12/02 03:51:03;;;;;;;40.50;26.90;;;1.20;99.90;;;;;;5068765;28;20492;-54
2022/12/02 03:53:30;;;;;;;44.60;30.53;;;1.10;99.90;;;;;;5068871;28;20485;-56
2022/12/02 03:55:57;;;;;;;39.77;28.67;;;1.20;99.90;;;;;;5068885;28;20601;-56
2022/12/02 03:58:33;;;;;;;45.10;30.47;;;1.20;99.90;;;;;;5068292;28;20552;-54
2022/12/02 04:01:00;;;;;;;39.87;27.83;;;1.20;99.90;;;;;;5064707;28;20496;-55
2022/12/02 04:03:26;;;;;;;39.63;28.37;;;1.20;99.90;;;;;;5073422;28;21035;-56
2022/12/02 04:05:53;;;;;;;44.17;29.73;;;1.20;99.90;;;;;;5069659;28;20973;-55
2022/12/02 04:08:21;;;;;;;43.53;28.73;;;1.20;99.90;;;;;;5065176;28;20499;-55
2022/12/02 04:10:47;;;;;;;44.67;30.03;;;1.20;99.90;;;;;;5068914;28;20449;-54
2022/12/02 04:13:14;;;;;;;44.37;30.20;;;1.20;99.90;;;;;;5068270;28;20555;-55
2022/12/02 04:15:40;;;;;;;44.03;29.07;;;1.20;99.90;;;;;;5062861;28;20576;-54
2022/12/02 04:18:07;;;;;;;41.63;29.10;;;1.20;99.90;;;;;;5063421;28;20571;-54
2022/12/02 04:20:33;;;;;;;42.37;28.70;;;1.20;99.90;;;;;;5068129;28;20488;-55
2022/12/02 04:23:00;;;;;;;39.80;27.33;;;1.20;99.90;;;;;;5066253;28;20515;-54
2022/12/02 04:25:28;;;;;;;40.73;28.00;;;1.20;99.90;;;;;;5069187;28;20488;-55
2022/12/02 04:27:54;;;;;;;40.60;28.37;;;1.20;99.90;;;;;;5061107;28;20923;-54
2022/12/02 04:30:21;;;;;;;40.40;26.73;;;1.20;99.90;;;;;;5064920;28;20562;-54
2022/12/02 04:32:48;;;;;;;42.47;28.27;;;1.20;99.90;;;;;;5067867;28;20489;-51
2022/12/02 04:35:54;;;;;;;42.67;28.80;;;1.20;99.90;;;;;;5071466;28;20518;-52
2022/12/02 04:38:34;;;;;;;40.80;27.77;;;1.30;99.90;;;;;;5066028;28;20883;-51
2022/12/02 04:41:02;;;;;;;40.03;28.47;;;1.20;99.90;;;;;;5066733;28;20460;-52
2022/12/02 04:43:29;;;;;;;37.70;27.27;;;1.20;99.90;;;;;;5075189;28;20459;-52
2022/12/02 04:45:55;;;;;;;41.23;27.60;;;1.20;99.90;;;;;;5068570;28;21043;-52
2022/12/02 04:48:22;;;;;;;39.77;27.90;;;1.20;99.90;;;;;;5070341;28;20456;-52
2022/12/02 04:50:49;;;;;;;42.37;28.23;;;1.20;99.90;;;;;;5068656;28;20465;-54
2022/12/02 04:53:16;;;;;;;39.60;28.40;;;1.20;99.90;;;;;;5069079;28;20457;-52
2022/12/02 04:55:45;;;;;;;40.23;27.47;;;1.20;99.90;;;;;;5066458;28;20856;-51
2022/12/02 04:58:13;;;;;;;38.70;26.17;;;1.20;99.90;;;;;;5065643;28;20492;-52
2022/12/02 05:00:40;;;;;;;40.07;26.80;;;1.20;99.90;;;;;;5063578;28;20453;-52
2022/12/02 05:03:06;;;;;;;38.80;27.80;;;1.20;99.90;;;;;;5068590;28;20517;-52
2022/12/02 05:05:33;;;;;;;40.40;28.60;;;1.20;99.90;;;;;;5062446;28;20546;-50
2022/12/02 05:07:59;;;;;;;42.57;27.60;;;1.20;99.90;;;;;;5066966;28;20518;-52
2022/12/02 05:10:27;;;;;;;41.13;28.70;;;1.20;99.90;;;;;;5066400;28;20534;-50
2022/12/02 05:12:53;;;;;;;41.40;28.67;;;1.20;99.90;;;;;;5065669;28;20970;-55
2022/12/02 05:15:21;;;;;;;41.87;26.50;;;1.20;99.90;;;;;;5068118;28;20531;-55
2022/12/02 05:17:48;;;;;;;35.77;26.10;;;1.20;99.90;;;;;;5065971;28;20498;-56
2022/12/02 05:20:15;;;;;;;43.00;29.27;;;1.20;99.90;;;;;;5075047;28;20457;-56
2022/12/02 05:22:42;;;;;;;47.07;35.10;;;1.20;99.90;;;;;;5061109;28;20507;-56
2022/12/02 05:25:09;;;;;;;49.30;35.70;;;1.20;99.90;;;;;;5065539;28;20864;-54
2022/12/02 05:27:35;;;;;;;41.40;29.97;;;1.20;99.90;;;;;;5060266;28;20480;-54
2022/12/02 05:30:02;;;;;;;39.53;27.57;;;1.20;99.90;;;;;;5063308;28;20901;-54
2022/12/02 05:32:30;;;;;;;38.53;29.63;;;1.20;99.90;;;;;;5063860;28;20929;-56
2022/12/02 05:34:57;;;;;;;43.70;32.07;;;1.20;99.90;;;;;;5063502;28;20924;-56
2022/12/02 05:37:23;;;;;;;38.17;29.50;;;1.20;99.90;;;;;;5066808;28;21274;-55
2022/12/02 05:39:50;;;;;;;52.00;36.50;;;1.20;99.90;;;;;;5064209;28;20534;-56
2022/12/02 05:42:17;;;;;;;40.17;29.23;;;1.20;99.90;;;;;;5059123;28;20540;-51
2022/12/02 05:44:43;;;;;;;37.00;25.93;;;1.20;99.90;;;;;;5059092;28;20476;-51
2022/12/02 05:47:12;;;;;;;36.40;25.47;;;1.20;99.90;;;;;;5066967;28;20511;-51
2022/12/02 05:49:41;;;;;;;33.57;25.23;;;1.20;99.90;;;;;;5065847;28;20480;-51
2022/12/02 05:52:23;;;;;;;35.10;24.33;;;1.20;99.90;;;;;;5067413;28;20566;-50
2022/12/02 05:54:52;;;;;;;36.43;26.80;;;1.30;99.90;;;;;;5065007;28;20515;-51
2022/12/02 05:57:22;;;;;;;37.57;27.30;;;1.20;99.90;;;;;;5062600;28;20509;-51
2022/12/02 05:59:49;;;;;;;32.40;23.87;;;1.30;99.90;;;;;;5061429;28;20461;-51
2022/12/02 06:02:24;;;;;;;35.63;25.80;;;1.30;99.90;;;;;;5061905;28;20499;-52
2022/12/02 06:04:52;;;;;;;39.23;24.93;;;1.30;99.90;;;;;;5065130;28;20448;-53
2022/12/02 06:07:19;;;;;;;36.67;24.00;;;1.30;99.90;;;;;;5065553;28;21009;-50
2022/12/02 06:09:46;;;;;;;31.97;22.63;;;1.30;99.90;;;;;;5070741;28;20475;-52
2022/12/02 06:12:17;;;;;;;31.00;22.63;;;1.30;99.90;;;;;;5062816;28;20481;-51
2022/12/02 06:14:47;;;;;;;31.43;21.57;;;1.30;99.90;;;;;;5063872;28;21016;-53
2022/12/02 06:17:16;;;;;;;27.10;21.40;;;1.30;99.90;;;;;;5064453;28;20554;-50
2022/12/02 06:19:45;;;;;;;28.27;20.53;;;1.30;99.90;;;;;;5067326;28;20485;-51
2022/12/02 06:22:17;;;;;;;28.17;20.83;;;1.30;99.90;;;;;;5065625;28;20518;-51
2022/12/02 06:24:44;;;;;;;28.13;20.90;;;1.30;99.90;;;;;;5068988;28;20454;-51
2022/12/02 06:27:13;;;;;;;27.00;19.50;;;1.40;99.90;;;;;;5067447;28;20493;-50
2022/12/02 06:29:47;;;;;;;26.70;21.20;;;1.40;99.90;;;;;;5064061;28;20484;-51
2022/12/02 06:32:18;;;;;;;23.20;18.80;;;1.40;99.90;;;;;;5074883;28;22494;-50
2022/12/02 06:34:47;;;;;;;25.90;20.57;;;1.40;99.90;;;;;;5072699;28;20465;-51
2022/12/02 06:37:18;;;;;;;22.20;18.03;;;1.40;99.90;;;;;;5076882;28;21044;-51
2022/12/02 06:39:47;;;;;;;20.47;16.90;;;1.40;99.90;;;;;;5078797;28;20511;-51
2022/12/02 06:42:21;;;;;;;25.37;19.60;;;1.40;99.90;;;;;;5067774;28;21376;-53
2022/12/02 06:45:06;;;;;;;25.20;18.27;;;1.40;99.90;;;;;;5076065;28;20465;-51
2022/12/02 06:47:56;;;;;;;26.07;19.30;;;1.40;99.90;;;;;;5079395;28;20475;-52
2022/12/02 06:50:29;;;;;;;24.07;17.70;;;1.40;98.90;;;;;;5079012;28;20494;-51
2022/12/02 06:53:21;;;;;;;22.60;17.93;;;1.50;99.90;;;;;;5078465;28;20489;-51
2022/12/02 06:55:50;;;;;;;24.80;18.43;;;1.50;94.90;;;;;;5077720;28;20481;-51
2022/12/02 06:58:28;;;;;;;24.00;17.50;;;1.50;21.70;;;;;;5081526;28;20461;-51
2022/12/02 07:01:10;;;;;;;24.30;18.10;;;1.50;22.20;;;;;;5078770;28;20503;-52
2022/12/02 07:03:42;;;;;;;25.10;18.97;;;1.50;22.10;;;;;;5070061;28;20470;-51
2022/12/02 07:06:15;;;;;;;21.97;17.93;;;1.50;24.40;;;;;;5078897;28;20489;-51
2022/12/02 07:08:43;;;;;;;23.37;17.87;;;1.50;25.10;;;;;;5079393;28;20460;-51
2022/12/02 07:11:48;;;;;;;25.30;17.90;;;1.50;23.90;;;;;;5068535;28;20484;-51
2022/12/02 07:14:24;;;;;;;23.63;18.30;;;1.50;30.00;;;;;;5069960;28;20823;-52
2022/12/02 07:16:52;;;;;;;21.20;16.97;;;1.50;26.70;;;;;;5067494;28;20472;-52
2022/12/02 07:19:22;;;;;;;30.50;21.77;;;1.50;29.20;;;;;;5069779;28;21155;-51
2022/12/02 07:21:49;;;;;;;29.27;20.27;;;1.50;31.00;;;;;;5076829;28;20456;-52
2022/12/02 07:24:20;;;;;;;27.43;19.60;;;1.50;28.00;;;;;;5069920;28;20492;-52
2022/12/02 07:26:47;;;;;;;23.53;18.27;;;1.50;28.50;;;;;;5065907;28;20457;-52
2022/12/02 07:29:20;;;;;;;27.93;19.50;;;1.50;27.30;;;;;;5070498;28;20459;-52
2022/12/02 07:31:46;;;;;;;23.60;17.90;;;1.50;27.70;;;;;;5068581;28;20449;-51
2022/12/02 07:34:13;;;;;;;42.20;25.23;;;1.40;38.30;;;;;;5066922;28;20457;-51
2022/12/02 07:36:40;;;;;;;26.60;18.10;;;1.40;30.30;;;;;;5080248;28;20465;-51
2022/12/02 07:39:06;;;;;;;22.60;17.70;;;1.50;29.00;;;;;;5078899;28;20822;-51
2022/12/02 07:41:34;;;;;;;22.80;17.30;;;1.50;33.20;;;;;;5076549;28;20456;-51
2022/12/02 07:44:01;;;;;;;27.27;19.37;;;1.50;32.70;;;;;;5082662;28;20573;-51
2022/12/02 07:46:28;;;;;;;28.30;20.00;;;1.50;31.80;;;;;;5078487;28;21024;-51
2022/12/02 07:48:55;;;;;;;23.63;18.27;;;1.50;31.00;;;;;;5070971;28;20542;-51
2022/12/02 07:51:21;;;;;;;22.20;17.33;;;1.50;30.00;;;;;;5066617;28;20481;-52
2022/12/02 07:53:48;;;;;;;23.53;17.73;;;1.50;29.80;;;;;;5068221;28;21009;-52
2022/12/02 07:56:14;;;;;;;23.13;17.33;;;1.50;29.90;;;;;;5077731;28;20491;-51
2022/12/02 07:58:42;;;;;;;24.37;17.37;;;1.50;31.50;;;;;;5063064;28;20794;-51
2022/12/02 08:01:09;;;;;;;21.63;16.37;;;1.50;29.40;;;;;;5061264;28;20543;-52
2022/12/02 08:03:35;;;;;;;21.73;16.50;;;1.50;34.50;;;;;;5072998;28;20511;-51
2022/12/02 08:06:02;;;;;;;22.63;17.53;;;1.50;32.70;;;;;;5070035;28;20550;-51
2022/12/02 08:08:28;;;;;;;22.83;18.00;;;1.50;31.80;;;;;;5081043;28;20459;-51
2022/12/02 08:10:55;;;;;;;23.80;17.10;;;1.50;33.60;;;;;;5075114;28;20575;-51
2022/12/02 08:13:21;;;;;;;21.67;16.07;;;1.50;36.00;;;;;;5077856;28;20456;-51
2022/12/02 08:15:49;;;;;;;24.20;18.23;;;1.60;33.30;;;;;;5079608;28;20480;-51
2022/12/02 08:18:16;;;;;;;25.30;17.97;;;1.50;37.60;;;;;;5068632;28;20517;-51
2022/12/02 08:20:43;;;;;;;25.97;18.63;;;1.50;35.60;;;;;;5072380;28;20534;-51
2022/12/02 08:23:09;;;;;;;23.43;16.90;;;1.60;34.10;;;;;;5082703;28;20465;-51
2022/12/02 08:25:36;;;;;;;32.60;19.40;;;1.60;32.20;;;;;;5070126;28;20508;-51
2022/12/02 08:28:02;;;;;;;23.37;17.90;;;1.60;30.80;;;;;;5071106;28;20514;-52
2022/12/02 08:30:29;;;;;;;23.77;18.20;;;1.70;31.00;;;;;;5074783;28;20512;-51
2022/12/02 08:32:57;;;;;;;22.20;17.47;;;1.70;30.50;;;;;;5071985;28;20510;-51
2022/12/02 08:35:23;;;;;;;26.43;17.80;;;1.70;32.30;;;;;;5069068;28;20514;-50
2022/12/02 08:37:50;;;;;;;27.37;16.57;;;1.70;32.50;;;;;;5070542;28;20882;-51
2022/12/02 08:40:16;;;;;;;22.27;17.00;;;1.70;31.70;;;;;;5076914;28;20461;-51
2022/12/02 08:42:43;;;;;;;22.00;16.27;;;1.70;32.40;;;;;;5079075;28;20453;-51
2022/12/02 08:45:10;;;;;;;21.03;15.97;;;1.70;37.20;;;;;;5074702;28;20460;-52
2022/12/02 08:47:37;;;;;;;21.73;15.77;;;1.70;37.30;;;;;;5077317;28;20451;-51
2022/12/02 08:50:06;;;;;;;20.80;16.63;;;1.70;36.80;;;;;;5083472;28;20475;-51
2022/12/02 08:52:33;;;;;;;23.07;18.03;;;1.70;45.10;;;;;;5077851;28;20468;-51
2022/12/02 08:54:59;;;;;;;22.20;16.50;;;1.70;36.80;;;;;;5069216;28;20461;-50
2022/12/02 08:57:26;;;;;;;20.03;15.87;;;1.80;34.70;;;;;;5078208;28;20497;-51
2022/12/02 08:59:53;;;;;;;24.90;16.60;;;1.80;37.40;;;;;;5071878;28;20477;-51
2022/12/02 09:02:19;;;;;;;22.10;16.13;;;1.80;37.30;;;;;;5075097;28;20463;-51
2022/12/02 09:04:46;;;;;;;21.23;16.97;;;1.80;37.70;;;;;;5071841;28;20457;-50
2022/12/02 09:07:14;;;;;;;25.50;17.40;;;1.80;35.60;;;;;;5072592;28;20484;-51
2022/12/02 09:09:40;;;;;;;21.77;17.07;;;1.80;51.90;;;;;;5081886;28;20457;-52
2022/12/02 09:12:07;;;;;;;24.20;17.00;;;1.80;43.40;;;;;;5072905;28;20461;-51
2022/12/02 09:14:34;;;;;;;23.30;16.40;;;1.80;47.00;;;;;;5077415;28;20486;-52
2022/12/02 09:17:00;;;;;;;21.23;17.23;;;1.80;45.10;;;;;;5074586;28;20534;-52
2022/12/02 09:19:27;;;;;;;25.07;18.20;;;1.80;41.70;;;;;;5072001;28;20526;-51
2022/12/02 09:21:53;;;;;;;23.07;16.57;;;1.80;40.00;;;;;;5070107;28;20510;-50
2022/12/02 09:24:22;;;;;;;22.50;16.47;;;1.90;38.40;;;;;;5079398;28;20935;-51
2022/12/02 09:26:48;;;;;;;22.30;15.10;;;1.80;43.70;;;;;;5084854;28;20457;-50
2022/12/02 09:29:15;;;;;;;24.47;16.60;;;1.80;45.30;;;;;;5081410;28;20460;-52
2022/12/02 09:31:41;;;;;;;21.97;16.47;;;1.80;48.20;;;;;;5081685;28;20545;-51
2022/12/02 09:34:08;;;;;;;22.83;17.57;;;1.90;43.50;;;;;;5075180;28;20530;-51
2022/12/02 09:36:35;;;;;;;26.10;16.73;;;1.80;43.60;;;;;;5076478;28;20521;-51
2022/12/02 09:39:01;;;;;;;20.80;17.37;;;1.90;41.20;;;;;;5085775;28;20546;-52
2022/12/02 09:41:29;;;;;;;23.70;18.40;;;1.80;42.00;;;;;;5079745;28;20453;-52
2022/12/02 09:43:56;;;;;;;21.80;16.30;;;1.80;42.00;;;;;;5069834;28;20518;-51
2022/12/02 09:46:24;;;;;;;21.00;16.30;;;1.80;41.60;;;;;;5079895;28;20480;-51
2022/12/02 09:48:51;;;;;;;26.00;18.30;;;1.90;45.30;;;;;;5071170;28;20963;-51
2022/12/02 09:51:17;;;;;;;24.63;18.73;;;1.90;45.40;;;;;;5082096;28;20868;-52
2022/12/02 09:53:45;;;;;;;26.70;17.20;;;2.00;44.30;;;;;;5071248;28;20464;-51
2022/12/02 09:56:15;;;;;;;21.53;17.00;;;2.00;50.90;;;;;;5076171;28;20516;-51
2022/12/02 09:58:44;;;;;;;29.80;19.37;;;2.00;45.40;;;;;;5085365;28;20927;-55
2022/12/02 10:01:13;;;;;;;25.57;17.43;;;2.10;47.70;;;;;;5079555;28;20503;-56
2022/12/02 10:03:40;;;;;;;23.90;17.83;;;2.10;52.40;;;;;;5071275;28;20823;-56
2022/12/02 10:06:12;;;;;;;23.00;17.30;;;2.10;50.20;;;;;;5084758;28;20490;-56
2022/12/02 10:08:39;;;;;;;24.90;17.83;;;2.20;46.80;;;;;;5073153;28;20464;-56
2022/12/02 10:11:06;;;;;;;31.80;17.23;;;2.10;51.20;;;;;;5068170;28;20539;-55
2022/12/02 10:13:39;;;;;;;25.80;18.13;;;2.10;46.90;;;;;;5072269;28;20927;-54
2022/12/02 10:16:12;;;;;;;31.40;19.83;;;2.10;48.70;;;;;;5074400;28;21058;-53
2022/12/02 10:18:39;;;;;;;51.13;29.20;;;2.10;47.30;;;;;;5069446;28;20445;-54
2022/12/02 10:21:06;;;;;;;26.50;19.37;;;2.00;47.40;;;;;;5078669;28;21101;-55
2022/12/02 10:23:32;;;;;;;47.47;28.77;;;2.00;45.90;;;;;;5072053;28;20441;-55
2022/12/02 10:26:11;;;;;;;33.20;21.93;;;2.00;43.10;;;;;;5088815;28;20475;-54
2022/12/02 10:28:39;;;;;;;31.20;21.50;;;2.00;45.10;;;;;;5054895;28;20466;-55
2022/12/02 10:31:11;;;;;;;29.90;20.47;;;2.00;42.80;;;;;;5070064;28;21061;-55
2022/12/02 10:33:40;;;;;;;31.80;20.60;;;2.00;53.60;;;;;;5070861;28;20472;-55
2022/12/02 10:36:08;;;;;;;29.30;17.83;;;2.10;50.20;;;;;;5081120;28;20533;-55
2022/12/02 10:38:38;;;;;;;29.63;19.13;;;2.10;40.40;;;;;;5069531;28;20457;-53
2022/12/02 10:41:27;;;;;;;27.97;19.27;;;2.10;40.60;;;;;;5072726;28;20816;-54
2022/12/02 10:44:04;;;;;;;32.80;16.87;;;2.10;38.10;;;;;;5077738;28;20544;-54
2022/12/02 10:46:33;;;;;;;26.30;19.00;;;2.10;43.50;;;;;;5077435;28;20534;-56
2022/12/02 10:49:16;;;;;;;40.37;29.20;;;2.10;47.90;;;;;;5068943;28;20468;-55
2022/12/02 10:51:42;;;;;;;40.53;32.80;;;2.10;41.50;;;;;;5076518;28;20511;-54
2022/12/02 10:54:20;;;;;;;25.27;18.77;;;2.10;36.50;;;;;;5079957;28;20460;-55
2022/12/02 10:56:47;;;;;;;28.23;18.23;;;2.10;33.00;;;;;;5078799;28;21200;-56
2022/12/02 10:59:15;;;;;;;27.90;17.33;;;2.10;36.90;;;;;;5069321;28;20453;-54
2022/12/02 11:01:43;;;;;;;31.30;21.37;;;2.10;33.60;;;;;;5071300;28;20503;-54
2022/12/02 11:04:12;;;;;;;28.03;18.23;;;2.00;30.20;;;;;;5071486;28;20508;-54
2022/12/02 11:06:39;;;;;;;31.40;18.53;;;2.10;26.20;;;;;;5070564;28;20476;-56
2022/12/02 11:09:05;;;;;;;28.57;18.40;;;2.10;32.00;;;;;;5070453;28;20497;-56
2022/12/02 11:11:40;;;;;;;33.40;20.20;;;2.00;36.60;;;;;;5063040;28;20509;-56
2022/12/02 11:14:11;;;;;;;33.90;18.70;;;2.10;37.00;;;;;;5051269;28;20445;-55
2022/12/02 11:17:05;;;;;;;29.87;20.80;;;2.00;35.70;;;;;;5067204;28;20490;-55
2022/12/02 11:19:43;;;;;;;34.13;20.67;;;2.00;36.40;;;;;;5064297;28;20445;-56
2022/12/02 11:22:48;;;;;;;38.97;22.90;;;2.00;36.20;;;;;;5070465;28;20452;-55
2022/12/02 11:25:52;;;;;;;39.03;24.97;;;2.00;38.40;;;;;;5057020;28;20445;-56
2022/12/02 11:28:58;;;;;;;35.03;23.50;;;2.10;39.40;;;;;;5064912;28;20942;-55
2022/12/02 11:31:26;;;;;;;32.57;21.17;;;2.20;39.00;;;;;;5054363;28;20472;-55
2022/12/02 11:34:25;;;;;;;33.73;20.97;;;2.20;45.20;;;;;;5072822;28;20507;-55
2022/12/02 11:37:32;;;;;;;37.53;20.00;;;2.20;54.10;;;;;;5080286;28;20553;-54
2022/12/02 11:40:00;;;;;;;32.10;20.03;;;2.00;63.90;;;;;;5069978;28;20456;-56
2022/12/02 11:42:28;;;;;;;34.43;22.23;;;2.00;56.40;;;;;;5075840;28;20516;-55
2022/12/02 11:45:12;;;;;;;31.40;19.93;;;2.00;56.60;;;;;;5084933;28;20459;-55
2022/12/02 11:47:40;;;;;;;35.90;20.73;;;2.10;55.00;;;;;;5070048;28;21086;-56
2022/12/02 11:50:24;;;;;;;31.00;19.63;;;2.10;55.20;;;;;;5076379;28;20534;-54
2022/12/02 11:52:53;;;;;;;32.67;18.63;;;2.10;57.40;;;;;;5087545;28;20534;-55
2022/12/02 11:55:22;;;;;;;27.73;17.93;;;2.10;54.00;;;;;;5083907;28;20517;-56
2022/12/02 11:57:50;;;;;;;27.13;18.97;;;2.10;52.90;;;;;;5072790;28;20456;-55
2022/12/02 12:00:23;;;;;;;28.80;18.33;;;2.10;50.40;;;;;;5081569;28;20502;-55
2022/12/02 12:03:11;;;;;;;27.17;17.50;;;2.10;52.50;;;;;;5073311;28;20457;-55
2022/12/02 12:05:39;;;;;;;26.63;16.53;;;2.10;49.80;;;;;;5115085;22;20502;-52
2022/12/02 12:08:06;;;;;;;28.10;19.10;;;2.00;48.80;;;;;;5114151;28;20488;-52
2022/12/02 12:10:35;;;;;;;40.23;28.50;;;2.00;47.70;;;;;;5110168;27;20459;-51
2022/12/02 12:13:19;;;;;;;26.03;18.17;;;2.00;46.20;;;;;;5107618;28;20486;-52
2022/12/02 12:15:57;;;;;;;34.43;20.90;;;1.90;45.80;;;;;;5106972;28;20494;-52
2022/12/02 12:18:38;;;;;;;25.37;16.27;;;1.90;42.60;;;;;;5102906;28;20460;-51
2022/12/02 12:21:07;;;;;;;26.10;16.53;;;1.90;45.00;;;;;;5106812;28;20504;-52
2022/12/02 12:23:36;;;;;;;21.87;16.17;;;1.90;41.40;;;;;;5102871;28;20440;-52
2022/12/02 12:26:04;;;;;;;25.37;15.80;;;1.90;40.10;;;;;;5103543;28;20476;-51
2022/12/02 12:28:32;;;;;;;24.20;16.37;;;1.90;38.70;;;;;;5112427;27;20658;-52
2022/12/02 12:31:00;;;;;;;26.03;17.80;;;1.90;41.70;;;;;;5109195;28;20459;-52
2022/12/02 12:33:28;;;;;;;25.00;16.80;;;1.80;45.10;;;;;;5112227;28;20512;-51
2022/12/02 12:35:56;;;;;;;26.70;17.10;;;1.80;44.30;;;;;;5114895;28;20527;-51
2022/12/02 12:38:26;;;;;;;27.87;17.67;;;1.80;46.50;;;;;;5105982;28;20829;-52
2022/12/02 12:40:53;;;;;;;24.10;16.90;;;1.80;45.20;;;;;;5121180;27;20438;-52
2022/12/02 12:43:23;;;;;;;29.57;18.60;;;1.80;46.60;;;;;;5129671;27;21788;-53
2022/12/02 12:45:50;;;;;;;28.57;18.83;;;1.90;43.30;;;;;;5103565;28;20479;-51
2022/12/02 12:48:16;;;;;;;25.70;18.43;;;1.80;49.40;;;;;;5112665;28;20467;-51
2022/12/02 12:50:43;;;;;;;32.87;22.30;;;1.80;45.00;;;;;;5108168;28;20456;-52